createdAt,value
2019-01-20T00:01:31.262Z,11.33
2019-01-20T00:03:59.711Z,12.43
2019-01-20T00:06:28.367Z,12.30
2019-01-20T00:08:56.891Z,11.73
2019-01-20T00:11:25.417Z,12.43
2019-01-20T00:13:53.887Z,12.03
2019-01-20T00:16:22.339Z,11.27
2019-01-20T00:18:50.792Z,12.30
2019-01-20T00:21:19.315Z,11.80
2019-01-20T00:23:47.836Z,11.13
2019-01-20T00:26:16.295Z,11.40
2019-01-20T00:28:44.816Z,11.00
2019-01-20T00:31:13.258Z,11.07
2019-01-20T00:33:41.718Z,11.37
2019-01-20T00:36:10.341Z,11.33
2019-01-20T00:38:38.814Z,11.57
2019-01-20T00:41:07.337Z,12.00
2019-01-20T00:43:35.895Z,11.03
2019-01-20T00:46:04.737Z,10.70
2019-01-20T00:48:33.186Z,11.00
2019-01-20T00:51:01.905Z,11.53
2019-01-20T00:53:30.373Z,11.67
2019-01-20T00:55:58.831Z,11.93
2019-01-20T00:58:27.368Z,12.00
2019-01-20T01:00:56.004Z,10.83
2019-01-20T01:03:24.607Z,10.93
2019-01-20T01:05:53.334Z,11.60
2019-01-20T01:08:21.785Z,11.67
2019-01-20T01:10:50.363Z,11.83
2019-01-20T01:13:19.143Z,12.10
2019-01-20T01:15:47.637Z,12.73
2019-01-20T01:18:35.492Z,12.40
2019-01-20T01:21:04.093Z,12.50
2019-01-20T01:23:32.553Z,12.63
2019-01-20T01:26:01.097Z,11.90
2019-01-20T01:28:29.555Z,13.00
2019-01-20T01:30:58.088Z,12.93
2019-01-20T01:33:26.608Z,12.87
2019-01-20T01:35:55.066Z,13.00
2019-01-20T01:38:23.593Z,13.57
2019-01-20T01:40:52.120Z,13.10
2019-01-20T01:43:20.716Z,13.43
2019-01-20T01:45:49.170Z,13.67
2019-01-20T01:48:17.696Z,13.83
2019-01-20T01:50:46.264Z,14.17
2019-01-20T01:53:14.724Z,14.90
2019-01-20T01:55:43.243Z,14.63
2019-01-20T01:58:11.695Z,15.30
2019-01-20T02:00:40.159Z,14.60
2019-01-20T02:03:08.742Z,16.07
2019-01-20T02:05:37.364Z,14.93
2019-01-20T02:08:05.900Z,16.23
2019-01-20T02:10:34.558Z,16.53
2019-01-20T02:13:03.017Z,17.17
2019-01-20T02:15:31.553Z,17.20
2019-01-20T02:18:00.082Z,18.50
2019-01-20T02:20:28.678Z,18.00
2019-01-20T02:22:57.242Z,18.37
2019-01-20T02:25:25.877Z,19.17
2019-01-20T02:27:55.006Z,19.67
2019-01-20T02:30:28.086Z,18.27
2019-01-20T02:32:56.686Z,18.17
2019-01-20T02:35:25.225Z,19.70
2019-01-20T02:37:53.694Z,19.23
2019-01-20T02:40:22.338Z,19.17
2019-01-20T02:42:50.872Z,17.47
2019-01-20T02:45:19.570Z,18.77
2019-01-20T02:47:48.356Z,17.93
2019-01-20T02:50:18.762Z,17.93
2019-01-20T02:52:47.464Z,18.37
2019-01-20T02:55:16.266Z,18.20
2019-01-20T02:57:44.730Z,19.70
2019-01-20T03:00:16.651Z,18.60
2019-01-20T03:02:45.195Z,19.43
2019-01-20T03:05:14.632Z,18.90
2019-01-20T03:07:43.204Z,19.37
2019-01-20T03:10:13.272Z,19.87
2019-01-20T03:12:43.096Z,19.10
2019-01-20T03:15:14.896Z,19.27
2019-01-20T03:17:43.567Z,19.13
2019-01-20T03:20:20.057Z,19.47
2019-01-20T03:22:48.662Z,18.33
2019-01-20T03:25:17.887Z,18.17
2019-01-20T03:27:46.545Z,18.27
2019-01-20T03:30:17.740Z,19.00
2019-01-20T03:32:46.193Z,19.73
2019-01-20T03:35:17.413Z,20.33
2019-01-20T03:37:45.934Z,20.37
2019-01-20T03:40:17.301Z,20.63
2019-01-20T03:42:45.828Z,21.50
2019-01-20T03:45:16.425Z,20.67
2019-01-20T03:47:45.258Z,21.53
2019-01-20T03:50:15.759Z,22.07
2019-01-20T03:52:44.313Z,22.70
2019-01-20T03:55:17.571Z,21.90
2019-01-20T03:57:46.097Z,21.40
2019-01-20T04:00:19.523Z,22.47
2019-01-20T04:02:50.072Z,21.77
2019-01-20T04:05:18.686Z,21.63
2019-01-20T04:07:47.298Z,21.67
2019-01-20T04:10:16.509Z,21.70
2019-01-20T04:12:45.073Z,21.57
2019-01-20T04:15:15.234Z,22.37
2019-01-20T04:17:43.872Z,20.67
2019-01-20T04:20:14.505Z,22.80
2019-01-20T04:22:43.143Z,20.73
2019-01-20T04:25:17.351Z,21.33
2019-01-20T04:27:45.955Z,21.93
2019-01-20T04:30:17.121Z,21.77
2019-01-20T04:32:45.645Z,22.57
2019-01-20T04:35:14.540Z,22.43
2019-01-20T04:37:43.064Z,22.10
2019-01-20T04:40:19.671Z,23.27
2019-01-20T04:42:48.320Z,22.93
2019-01-20T04:45:17.105Z,24.57
2019-01-20T04:47:45.823Z,22.33
2019-01-20T04:50:16.728Z,22.70
2019-01-20T04:52:45.257Z,25.07
2019-01-20T04:55:15.050Z,22.13
2019-01-20T04:57:45.300Z,22.43
2019-01-20T05:00:22.220Z,22.13
2019-01-20T05:02:50.732Z,23.23
2019-01-20T05:05:19.631Z,24.13
2019-01-20T05:07:48.443Z,23.17
2019-01-20T05:10:18.358Z,25.00
2019-01-20T05:12:46.958Z,24.70
2019-01-20T05:15:17.939Z,26.37
2019-01-20T05:17:46.671Z,25.87
2019-01-20T05:20:36.045Z,24.93
2019-01-20T05:23:04.503Z,24.37
2019-01-20T05:25:32.982Z,24.33
2019-01-20T05:28:01.496Z,24.23
2019-01-20T05:30:29.957Z,23.70
2019-01-20T05:32:58.431Z,24.10
2019-01-20T05:35:26.951Z,24.23
2019-01-20T05:37:55.406Z,24.40
2019-01-20T05:40:23.936Z,24.80
2019-01-20T05:42:52.445Z,23.30
2019-01-20T05:45:23.057Z,23.97
2019-01-20T05:47:51.491Z,25.90
2019-01-20T05:50:20.136Z,24.47
2019-01-20T05:52:48.679Z,25.63
2019-01-20T05:55:17.371Z,24.70
2019-01-20T05:57:45.828Z,24.43
2019-01-20T06:00:23.210Z,25.77
2019-01-20T06:02:51.683Z,24.30
2019-01-20T06:05:20.211Z,24.23
2019-01-20T06:07:48.879Z,25.60
2019-01-20T06:10:17.414Z,26.17
2019-01-20T06:12:53.600Z,24.80
2019-01-20T06:15:21.378Z,24.53
2019-01-20T06:17:49.843Z,24.00
2019-01-20T06:20:18.782Z,25.37
2019-01-20T06:22:47.378Z,26.03
2019-01-20T06:25:15.912Z,24.67
2019-01-20T06:27:44.664Z,24.07
2019-01-20T06:30:22.011Z,24.60
2019-01-20T06:32:50.546Z,24.60
2019-01-20T06:35:19.203Z,25.03
2019-01-20T06:37:47.743Z,25.03
2019-01-20T06:40:16.352Z,24.57
2019-01-20T06:42:44.865Z,25.20
2019-01-20T06:45:14.793Z,24.90
2019-01-20T06:47:43.387Z,25.03
2019-01-20T06:50:20.110Z,26.13
2019-01-20T06:52:48.627Z,24.27
2019-01-20T06:55:17.360Z,25.33
2019-01-20T06:57:45.983Z,25.10
2019-01-20T07:00:17.634Z,25.20
2019-01-20T07:02:46.214Z,25.87
2019-01-20T07:05:14.991Z,25.10
2019-01-20T07:07:44.080Z,25.20
2019-01-20T07:10:34.715Z,24.90
2019-01-20T07:13:09.183Z,25.63
2019-01-20T07:15:33.478Z,24.40
2019-01-20T07:18:02.141Z,26.13
2019-01-20T07:20:30.678Z,25.70
2019-01-20T07:22:59.143Z,25.77
2019-01-20T07:25:27.847Z,26.23
2019-01-20T07:27:56.304Z,26.60
2019-01-20T07:30:24.845Z,26.37
2019-01-20T07:32:53.444Z,26.00
2019-01-20T07:35:21.969Z,27.23
2019-01-20T07:37:50.504Z,26.20
2019-01-20T07:40:21.738Z,26.57
2019-01-20T07:42:50.466Z,28.10
2019-01-20T07:45:19.064Z,27.93
2019-01-20T07:47:47.676Z,28.20
2019-01-20T07:50:21.347Z,28.10
2019-01-20T07:52:49.871Z,27.27
2019-01-20T07:55:18.520Z,26.10
2019-01-20T07:57:47.128Z,27.07
2019-01-20T08:00:20.969Z,26.87
2019-01-20T08:02:49.577Z,28.03
2019-01-20T08:05:18.643Z,26.87
2019-01-20T08:07:47.105Z,27.97
2019-01-20T08:10:24.445Z,26.57
2019-01-20T08:12:52.984Z,27.53
2019-01-20T08:15:21.984Z,26.53
2019-01-20T08:17:50.606Z,26.90
2019-01-20T08:20:21.293Z,26.67
2019-01-20T08:22:49.843Z,26.03
2019-01-20T08:25:19.621Z,27.63
2019-01-20T08:27:48.319Z,26.30
2019-01-20T08:30:21.966Z,26.53
2019-01-20T08:32:50.555Z,27.07
2019-01-20T08:35:19.263Z,28.03
2019-01-20T08:37:47.982Z,26.37
2019-01-20T08:40:21.736Z,26.63
2019-01-20T08:42:50.360Z,26.27
2019-01-20T08:45:22.050Z,26.57
2019-01-20T08:47:52.547Z,27.17
2019-01-20T08:50:21.938Z,26.27
2019-01-20T08:52:50.401Z,26.57
2019-01-20T08:55:19.286Z,26.93
2019-01-20T08:57:47.762Z,26.40
2019-01-20T09:00:17.121Z,24.60
2019-01-20T09:02:46.084Z,25.63
2019-01-20T09:05:14.947Z,26.63
2019-01-20T09:07:43.481Z,25.27
2019-01-20T09:10:15.087Z,25.70
2019-01-20T09:12:43.679Z,26.07
2019-01-20T09:15:12.227Z,24.67
2019-01-20T09:17:40.746Z,25.53
2019-01-20T09:20:14.126Z,25.30
2019-01-20T09:22:42.666Z,24.97
2019-01-20T09:25:13.411Z,24.03
2019-01-20T09:27:42.308Z,23.97
2019-01-20T09:30:19.557Z,23.60
2019-01-20T09:32:48.179Z,22.47
2019-01-20T09:35:16.729Z,21.60
2019-01-20T09:37:45.394Z,22.20
2019-01-20T09:40:15.909Z,21.10
2019-01-20T09:42:44.505Z,23.37
2019-01-20T09:45:18.318Z,22.30
2019-01-20T09:47:46.855Z,22.77
2019-01-20T09:50:15.554Z,22.57
2019-01-20T09:52:44.144Z,21.17
2019-01-20T09:55:13.227Z,22.00
2019-01-20T09:57:41.766Z,22.70
2019-01-20T10:00:15.928Z,22.57
2019-01-20T10:02:44.476Z,23.23
2019-01-20T10:05:13.352Z,22.93
2019-01-20T10:07:42.026Z,23.43
2019-01-20T10:10:20.505Z,23.33
2019-01-20T10:12:49.143Z,21.60
2019-01-20T10:15:18.057Z,23.13
2019-01-20T10:17:46.751Z,21.87
2019-01-20T10:20:21.030Z,23.17
2019-01-20T10:22:49.600Z,23.73
2019-01-20T10:25:18.209Z,24.00
2019-01-20T10:27:46.869Z,22.57
2019-01-20T10:30:27.041Z,22.67
2019-01-20T10:32:55.726Z,21.93
2019-01-20T10:35:29.019Z,21.87
2019-01-20T10:37:59.132Z,20.93
2019-01-20T10:40:27.669Z,20.80
2019-01-20T10:42:56.129Z,21.73
2019-01-20T10:45:24.648Z,22.50
2019-01-20T10:47:53.253Z,22.60
2019-01-20T10:50:21.859Z,21.57
2019-01-20T10:52:50.387Z,20.10
2019-01-20T10:55:19.053Z,20.57
2019-01-20T10:57:47.659Z,20.90
2019-01-20T11:00:28.081Z,20.40
2019-01-20T11:02:56.638Z,21.47
2019-01-20T11:05:30.333Z,21.73
2019-01-20T11:07:55.559Z,22.50
2019-01-20T11:10:24.015Z,22.40
2019-01-20T11:12:52.561Z,21.77
2019-01-20T11:15:21.172Z,22.07
2019-01-20T11:17:49.911Z,20.80
2019-01-20T11:20:20.335Z,22.93
2019-01-20T11:22:48.944Z,20.73
2019-01-20T11:25:23.059Z,21.87
2019-01-20T11:27:51.728Z,22.67
2019-01-20T11:30:39.655Z,22.87
2019-01-20T11:33:08.316Z,22.73
2019-01-20T11:35:36.922Z,22.80
2019-01-20T11:38:05.722Z,23.67
2019-01-20T11:40:34.344Z,22.63
2019-01-20T11:43:02.812Z,23.17
2019-01-20T11:45:31.975Z,23.47
2019-01-20T11:48:00.438Z,22.63
2019-01-20T11:50:29.230Z,23.33
2019-01-20T11:52:57.779Z,23.77
2019-01-20T11:55:26.388Z,22.80
2019-01-20T11:57:54.939Z,23.27
2019-01-20T12:00:26.549Z,23.37
2019-01-20T12:02:55.243Z,23.57
2019-01-20T12:05:24.008Z,22.57
2019-01-20T12:07:52.545Z,23.27
2019-01-20T12:10:21.568Z,22.77
2019-01-20T12:13:06.748Z,23.87
2019-01-20T12:15:35.356Z,22.63
2019-01-20T12:18:04.262Z,23.77
2019-01-20T12:20:32.919Z,23.87
2019-01-20T12:23:01.621Z,22.53
2019-01-20T12:25:30.210Z,23.90
2019-01-20T12:27:58.699Z,24.73
2019-01-20T12:30:33.295Z,23.30
2019-01-20T12:33:03.429Z,23.57
2019-01-20T12:35:31.956Z,23.77
2019-01-20T12:38:00.547Z,24.07
2019-01-20T12:40:34.605Z,24.50
2019-01-20T12:43:03.322Z,24.00
2019-01-20T12:45:31.832Z,23.33
2019-01-20T12:48:00.339Z,23.57
2019-01-20T12:50:28.808Z,23.07
2019-01-20T12:52:57.276Z,22.90
2019-01-20T12:55:25.729Z,23.93
2019-01-20T12:57:54.251Z,23.53
2019-01-20T13:00:22.787Z,22.83
2019-01-20T13:02:51.313Z,23.33
2019-01-20T13:05:19.833Z,23.23
2019-01-20T13:07:49.236Z,23.37
2019-01-20T13:10:19.336Z,23.43
2019-01-20T13:12:48.610Z,23.03
2019-01-20T13:15:19.823Z,23.17
2019-01-20T13:17:48.413Z,23.13
2019-01-20T13:20:24.993Z,23.17
2019-01-20T13:22:53.664Z,24.23
2019-01-20T13:25:24.587Z,22.97
2019-01-20T13:27:53.202Z,24.97
2019-01-20T13:30:26.562Z,23.60
2019-01-20T13:32:55.169Z,24.00
2019-01-20T13:35:24.161Z,24.77
2019-01-20T13:37:58.556Z,24.07
2019-01-20T13:40:48.013Z,23.60
2019-01-20T13:43:16.596Z,22.97
2019-01-20T13:45:45.372Z,23.60
2019-01-20T13:48:13.902Z,23.43
2019-01-20T13:50:42.598Z,22.57
2019-01-20T13:53:11.125Z,23.77
2019-01-20T13:55:39.753Z,23.03
2019-01-20T13:58:08.226Z,22.97
2019-01-20T14:00:36.980Z,22.93
2019-01-20T14:03:05.703Z,23.00
2019-01-20T14:05:34.325Z,22.90
2019-01-20T14:08:02.829Z,21.73
2019-01-20T14:10:32.286Z,21.97
2019-01-20T14:13:00.763Z,23.00
2019-01-20T14:15:29.364Z,21.97
2019-01-20T14:17:57.902Z,22.00
2019-01-20T14:20:27.166Z,23.70
2019-01-20T14:22:55.901Z,23.00
2019-01-20T14:25:31.195Z,21.63
2019-01-20T14:27:59.795Z,22.10
2019-01-20T14:30:36.066Z,22.47
2019-01-20T14:33:04.763Z,22.47
2019-01-20T14:35:33.448Z,22.00
2019-01-20T14:38:01.982Z,23.33
2019-01-20T14:40:30.643Z,22.97
2019-01-20T14:42:59.172Z,22.27
2019-01-20T14:45:27.755Z,21.27
2019-01-20T14:47:56.416Z,21.20
2019-01-20T14:50:27.222Z,21.10
2019-01-20T14:52:55.990Z,21.23
2019-01-20T14:55:25.487Z,21.33
2019-01-20T14:57:54.352Z,21.50
2019-01-20T15:00:26.538Z,21.70
2019-01-20T15:02:55.225Z,21.37
2019-01-20T15:05:23.845Z,21.43
2019-01-20T15:07:52.520Z,21.60
2019-01-20T15:10:21.419Z,21.83
2019-01-20T15:12:50.329Z,22.40
2019-01-20T15:15:22.166Z,21.00
2019-01-20T15:17:50.841Z,20.70
2019-01-20T15:20:19.441Z,20.63
2019-01-20T15:22:48.130Z,20.90
2019-01-20T15:25:20.854Z,20.43
2019-01-20T15:27:49.936Z,20.57
2019-01-20T15:30:23.981Z,20.20
2019-01-20T15:32:52.866Z,20.77
2019-01-20T15:35:22.150Z,20.93
2019-01-20T15:37:50.903Z,21.17
2019-01-20T15:40:22.652Z,21.33
2019-01-20T15:42:51.440Z,20.90
2019-01-20T15:45:22.539Z,22.57
2019-01-20T15:47:52.512Z,21.13
2019-01-20T15:50:32.143Z,21.30
2019-01-20T15:53:01.874Z,21.53
2019-01-20T15:55:31.066Z,22.63
2019-01-20T15:57:59.508Z,22.30
2019-01-20T16:00:30.585Z,22.07
2019-01-20T16:02:59.027Z,21.37
2019-01-20T16:05:28.533Z,22.17
2019-01-20T16:07:57.588Z,22.50
2019-01-20T16:10:26.203Z,21.97
2019-01-20T16:12:54.939Z,21.40
2019-01-20T16:15:26.474Z,22.77
2019-01-20T16:17:55.908Z,22.90
2019-01-20T16:20:26.643Z,22.77
2019-01-20T16:22:55.408Z,22.83
2019-01-20T16:25:26.685Z,23.10
2019-01-20T16:27:55.163Z,22.37
2019-01-20T16:30:29.173Z,21.67
2019-01-20T16:32:57.822Z,21.90
2019-01-20T16:35:26.669Z,23.23
2019-01-20T16:37:56.602Z,23.17
2019-01-20T16:40:25.948Z,22.47
2019-01-20T16:42:54.626Z,22.90
2019-01-20T16:45:34.144Z,21.23
2019-01-20T16:48:02.520Z,20.27
2019-01-20T16:50:31.050Z,21.93
2019-01-20T16:52:59.857Z,21.03
2019-01-20T16:55:28.515Z,21.37
2019-01-20T16:57:57.187Z,22.23
2019-01-20T17:00:31.417Z,21.97
2019-01-20T17:03:00.108Z,24.60
2019-01-20T17:05:28.963Z,27.47
2019-01-20T17:07:58.058Z,26.13
2019-01-20T17:10:35.444Z,26.80
2019-01-20T17:13:05.714Z,26.20
2019-01-20T17:15:39.887Z,25.63
2019-01-20T17:18:08.775Z,25.40
2019-01-20T17:20:37.648Z,27.63
2019-01-20T17:23:06.463Z,27.33
2019-01-20T17:25:35.209Z,27.47
2019-01-20T17:28:04.217Z,27.30
2019-01-20T17:30:35.405Z,27.23
2019-01-20T17:33:05.725Z,26.13
2019-01-20T17:35:34.780Z,25.73
2019-01-20T17:38:03.317Z,25.07
2019-01-20T17:40:32.283Z,24.77
2019-01-20T17:43:00.897Z,24.67
2019-01-20T17:45:35.213Z,25.63
2019-01-20T17:48:04.095Z,25.87
2019-01-20T17:50:35.384Z,25.03
2019-01-20T17:53:06.717Z,25.50
2019-01-20T17:55:35.759Z,25.63
2019-01-20T17:58:05.404Z,24.83
2019-01-20T18:00:39.279Z,25.00
2019-01-20T18:03:08.779Z,26.37
2019-01-20T18:05:37.853Z,24.80
2019-01-20T18:08:06.574Z,25.23
2019-01-20T18:10:35.372Z,25.50
2019-01-20T18:13:04.172Z,25.47
2019-01-20T18:15:32.917Z,25.70
2019-01-20T18:18:01.475Z,24.40
2019-01-20T18:20:34.337Z,24.17
2019-01-20T18:23:02.943Z,24.93
2019-01-20T18:25:31.746Z,23.73
2019-01-20T18:28:00.859Z,24.17
2019-01-20T18:30:30.887Z,23.57
2019-01-20T18:32:59.771Z,24.53
2019-01-20T18:35:28.839Z,23.67
2019-01-20T18:37:57.637Z,24.53
2019-01-20T18:40:27.069Z,24.20
2019-01-20T18:42:56.260Z,25.07
2019-01-20T18:45:33.014Z,22.83
2019-01-20T18:48:01.586Z,24.27
2019-01-20T18:50:32.977Z,24.73
2019-01-20T18:53:01.668Z,24.07
2019-01-20T18:55:30.200Z,23.57
2019-01-20T18:57:58.936Z,23.40
2019-01-20T19:00:33.067Z,23.90
2019-01-20T19:03:02.188Z,22.77
2019-01-20T19:05:31.306Z,22.30
2019-01-20T19:08:00.029Z,22.70
2019-01-20T19:10:28.750Z,22.20
2019-01-20T19:12:57.415Z,22.73
2019-01-20T19:15:26.309Z,22.20
2019-01-20T19:17:55.182Z,22.27
2019-01-20T19:20:27.353Z,22.13
2019-01-20T19:22:57.946Z,22.80
2019-01-20T19:25:26.850Z,22.30
2019-01-20T19:27:55.517Z,22.97
2019-01-20T19:30:32.469Z,22.70
2019-01-20T19:33:01.419Z,22.00
2019-01-20T19:35:30.064Z,22.60
2019-01-20T19:37:58.752Z,22.33
2019-01-20T19:40:27.529Z,23.77
2019-01-20T19:42:56.183Z,24.23
2019-01-20T19:45:24.797Z,22.40
2019-01-20T19:47:53.677Z,22.23
2019-01-20T19:50:22.993Z,22.90
2019-01-20T19:52:51.751Z,22.53
2019-01-20T19:55:24.156Z,23.33
2019-01-20T19:57:53.014Z,22.90
2019-01-20T20:00:26.679Z,23.10
2019-01-20T20:02:55.307Z,23.03
2019-01-20T20:05:23.992Z,22.83
2019-01-20T20:07:54.024Z,23.57
2019-01-20T20:10:24.776Z,22.87
2019-01-20T20:12:54.837Z,23.90
2019-01-20T20:15:25.491Z,23.30
2019-01-20T20:17:54.156Z,23.30
2019-01-20T20:20:23.075Z,24.93
2019-01-20T20:22:52.174Z,24.30
2019-01-20T20:25:22.496Z,23.63
2019-01-20T20:27:51.490Z,24.47
2019-01-20T20:30:28.781Z,23.63
2019-01-20T20:32:57.416Z,24.13
2019-01-20T20:35:26.035Z,25.20
2019-01-20T20:37:54.722Z,24.50
2019-01-20T20:40:23.835Z,25.67
2019-01-20T20:42:52.541Z,25.03
2019-01-20T20:45:23.266Z,24.93
2019-01-20T20:47:52.088Z,26.03
2019-01-20T20:50:20.705Z,25.27
2019-01-20T20:52:49.478Z,25.23
2019-01-20T20:55:18.078Z,26.33
2019-01-20T20:57:46.739Z,25.37
2019-01-20T21:00:20.918Z,26.03
2019-01-20T21:02:49.685Z,26.03
2019-01-20T21:05:18.307Z,25.77
2019-01-20T21:07:46.909Z,26.77
2019-01-20T21:10:17.381Z,26.40
2019-01-20T21:12:46.347Z,27.70
2019-01-20T21:15:16.148Z,27.17
2019-01-20T21:17:48.272Z,26.47
2019-01-20T21:20:23.961Z,27.70
2019-01-20T21:22:52.679Z,27.57
2019-01-20T21:25:21.363Z,29.07
2019-01-20T21:27:49.819Z,27.40
2019-01-20T21:30:29.264Z,29.17
2019-01-20T21:32:57.803Z,28.13
2019-01-20T21:35:26.266Z,28.00
2019-01-20T21:37:54.810Z,29.60
2019-01-20T21:40:24.190Z,29.33
2019-01-20T21:42:53.099Z,29.67
2019-01-20T21:45:21.870Z,30.07
2019-01-20T21:47:50.573Z,29.23
2019-01-20T21:50:24.616Z,29.50
2019-01-20T21:52:53.189Z,29.23
2019-01-20T21:55:21.989Z,30.30
2019-01-20T21:57:51.006Z,30.57
2019-01-20T22:00:25.123Z,31.00
2019-01-20T22:02:53.861Z,31.13
2019-01-20T22:05:22.517Z,31.70
2019-01-20T22:07:51.280Z,29.40
2019-01-20T22:10:21.633Z,30.67
2019-01-20T22:12:50.326Z,30.97
2019-01-20T22:15:19.190Z,31.87
2019-01-20T22:17:48.253Z,30.47
2019-01-20T22:20:18.977Z,30.97
2019-01-20T22:22:47.513Z,31.77
2019-01-20T22:25:16.208Z,30.57
2019-01-20T22:27:44.808Z,31.80
2019-01-20T22:30:21.538Z,31.13
2019-01-20T22:32:50.151Z,32.90
2019-01-20T22:35:18.878Z,31.57
2019-01-20T22:37:47.542Z,32.93
2019-01-20T22:40:17.935Z,32.03
2019-01-20T22:42:46.396Z,33.00
2019-01-20T22:45:17.424Z,33.20
2019-01-20T22:47:45.891Z,32.47
2019-01-20T22:50:14.862Z,34.13
2019-01-20T22:52:43.458Z,32.77
2019-01-20T22:55:19.015Z,33.33
2019-01-20T22:57:47.791Z,32.60
2019-01-20T23:00:24.806Z,33.87
2019-01-20T23:02:53.326Z,32.47
2019-01-20T23:05:21.776Z,31.73
2019-01-20T23:07:51.279Z,32.37
2019-01-20T23:10:19.906Z,31.53
2019-01-20T23:12:48.422Z,31.00
2019-01-20T23:15:16.919Z,29.80
2019-01-20T23:17:45.473Z,30.10
2019-01-20T23:20:17.004Z,30.90
2019-01-20T23:22:45.451Z,31.13
2019-01-20T23:25:13.930Z,30.33
2019-01-20T23:27:42.543Z,30.70
2019-01-20T23:30:15.788Z,31.17
2019-01-20T23:32:44.314Z,30.07
2019-01-20T23:35:12.844Z,30.10
2019-01-20T23:37:41.461Z,29.17
2019-01-20T23:40:12.820Z,29.57
2019-01-20T23:42:41.360Z,29.53
2019-01-20T23:45:11.726Z,29.63
2019-01-20T23:47:40.303Z,31.37
2019-01-20T23:50:13.892Z,31.40
2019-01-20T23:52:42.435Z,29.57
2019-01-20T23:55:12.096Z,30.50
2019-01-20T23:57:40.708Z,29.40
